createdAt,value
2023-02-11T00:01:08.866Z,6.70
2023-02-11T00:03:37.128Z,6.70
2023-02-11T00:06:09.150Z,6.70
2023-02-11T00:08:39.209Z,6.80
2023-02-11T00:11:13.467Z,6.80
2023-02-11T00:13:41.564Z,6.80
2023-02-11T00:16:10.493Z,6.80
2023-02-11T00:18:38.679Z,6.80
2023-02-11T00:21:10.292Z,6.90
2023-02-11T00:23:39.813Z,6.90
2023-02-11T00:26:15.660Z,6.90
2023-02-11T00:28:44.026Z,6.90
2023-02-11T00:31:12.864Z,6.90
2023-02-11T00:33:40.932Z,7.00
2023-02-11T00:36:11.351Z,7.00
2023-02-11T00:38:40.723Z,7.00
2023-02-11T00:41:08.581Z,7.00
2023-02-11T00:43:36.764Z,7.00
2023-02-11T00:46:04.937Z,7.10
2023-02-11T00:48:33.194Z,7.10
2023-02-11T00:51:01.262Z,7.10
2023-02-11T00:53:29.256Z,7.10
2023-02-11T00:55:58.459Z,7.20
2023-02-11T00:58:26.422Z,7.20
2023-02-11T01:00:55.858Z,7.20
2023-02-11T01:03:23.839Z,7.20
2023-02-11T01:05:52.263Z,7.20
2023-02-11T01:08:20.496Z,7.20
2023-02-11T01:10:56.139Z,7.20
2023-02-11T01:13:25.849Z,7.20
2023-02-11T01:15:54.259Z,7.20
2023-02-11T01:18:22.326Z,7.20
2023-02-11T01:20:50.177Z,7.20
2023-02-11T01:23:18.087Z,7.20
2023-02-11T01:25:46.166Z,7.20
2023-02-11T01:28:18.361Z,7.20
2023-02-11T01:30:47.724Z,7.20
2023-02-11T01:33:15.804Z,7.20
2023-02-11T01:35:44.502Z,7.20
2023-02-11T01:38:17.377Z,7.20
2023-02-11T01:40:49.029Z,7.20
2023-02-11T01:43:17.030Z,7.20
2023-02-11T01:46:03.612Z,7.20
2023-02-11T01:48:34.976Z,7.20
2023-02-11T01:51:07.777Z,7.30
2023-02-11T01:53:55.452Z,7.30
2023-02-11T01:56:42.358Z,7.30
2023-02-11T01:59:16.032Z,7.30
2023-02-11T02:01:49.440Z,7.30
2023-02-11T02:04:20.095Z,7.30
2023-02-11T02:06:53.040Z,7.20
2023-02-11T02:09:24.591Z,7.30
2023-02-11T02:11:53.013Z,7.30
2023-02-11T02:14:21.101Z,7.30
2023-02-11T02:16:50.354Z,7.30
2023-02-11T02:19:56.690Z,7.30
2023-02-11T02:22:58.411Z,7.30
2023-02-11T02:26:16.122Z,7.30
2023-02-11T02:29:22.894Z,7.40
2023-02-11T02:32:40.190Z,7.30
2023-02-11T02:35:23.688Z,7.30
2023-02-11T02:37:58.275Z,7.30
2023-02-11T02:40:30.562Z,7.40
2023-02-11T02:42:59.986Z,7.40
2023-02-11T02:45:28.145Z,7.40
2023-02-11T02:47:56.035Z,7.40
2023-02-11T02:50:31.424Z,7.50
2023-02-11T02:53:13.264Z,7.50
2023-02-11T02:55:53.533Z,7.50
2023-02-11T02:58:47.157Z,7.50
2023-02-11T03:01:27.510Z,7.50
2023-02-11T03:04:06.590Z,7.50
2023-02-11T03:06:49.587Z,7.50
2023-02-11T03:09:22.459Z,7.50
2023-02-11T03:11:50.624Z,7.40
2023-02-11T03:14:20.992Z,7.40
2023-02-11T03:16:50.316Z,7.40
2023-02-11T03:19:22.367Z,7.40
2023-02-11T03:21:54.399Z,7.50
2023-02-11T03:24:26.935Z,7.50
2023-02-11T03:26:57.376Z,7.50
2023-02-11T03:29:34.792Z,7.50
2023-02-11T03:32:07.366Z,7.50
2023-02-11T03:34:41.688Z,7.50
2023-02-11T03:37:15.095Z,7.50
2023-02-11T03:39:48.637Z,7.60
2023-02-11T03:42:17.668Z,7.60
2023-02-11T03:44:50.893Z,7.60
2023-02-11T03:47:22.146Z,7.60
2023-02-11T03:49:52.916Z,7.60
2023-02-11T03:52:24.098Z,7.60
2023-02-11T03:54:56.798Z,7.60
2023-02-11T03:57:24.836Z,7.60
2023-02-11T03:59:55.231Z,7.70
2023-02-11T04:02:25.839Z,7.70
2023-02-11T04:04:53.770Z,7.70
2023-02-11T04:07:23.148Z,7.70
2023-02-11T04:09:51.104Z,7.70
2023-02-11T04:12:18.992Z,7.70
2023-02-11T04:14:46.926Z,7.70
2023-02-11T04:17:14.931Z,7.70
2023-02-11T04:19:42.898Z,7.70
2023-02-11T04:22:11.132Z,7.80
2023-02-11T04:24:40.660Z,7.80
2023-02-11T04:27:08.630Z,7.80
2023-02-11T04:29:36.670Z,7.80
2023-02-11T04:32:04.728Z,7.80
2023-02-11T04:34:33.115Z,7.80
2023-02-11T04:37:01.060Z,7.80
2023-02-11T04:39:29.006Z,7.90
2023-02-11T04:41:58.383Z,7.90
2023-02-11T04:44:26.303Z,7.90
2023-02-11T04:46:54.446Z,7.90
2023-02-11T04:49:22.423Z,7.90
2023-02-11T04:51:50.325Z,7.90
2023-02-11T04:54:18.949Z,7.90
2023-02-11T04:56:46.945Z,7.90
2023-02-11T04:59:16.612Z,7.80
2023-02-11T05:01:44.561Z,7.80
2023-02-11T05:04:12.436Z,7.80
2023-02-11T05:06:40.665Z,7.80
2023-02-11T05:09:08.775Z,7.80
2023-02-11T05:11:39.302Z,7.80
2023-02-11T05:14:07.804Z,7.80
2023-02-11T05:16:37.182Z,7.80
2023-02-11T05:19:05.082Z,7.80
2023-02-11T05:21:32.985Z,7.80
2023-02-11T05:24:00.887Z,7.80
2023-02-11T05:26:29.017Z,7.80
2023-02-11T05:28:57.385Z,7.80
2023-02-11T05:31:25.253Z,7.80
2023-02-11T05:33:54.501Z,7.80
2023-02-11T05:36:22.524Z,7.70
2023-02-11T05:38:50.913Z,7.70
2023-02-11T05:41:18.846Z,7.70
2023-02-11T05:43:48.713Z,7.70
2023-02-11T05:46:18.924Z,7.70
2023-02-11T05:48:46.843Z,7.80
2023-02-11T05:51:16.120Z,7.80
2023-02-11T05:53:44.020Z,7.80
2023-02-11T05:56:12.705Z,7.80
2023-02-11T05:58:40.557Z,7.80
2023-02-11T06:01:08.493Z,7.80
2023-02-11T06:03:36.541Z,8.00
2023-02-11T06:06:04.818Z,8.00
2023-02-11T06:08:34.083Z,8.00
2023-02-11T06:11:01.963Z,7.90
2023-02-11T06:13:29.924Z,7.90
2023-02-11T06:15:58.507Z,7.90
2023-02-11T06:18:26.681Z,7.80
2023-02-11T06:20:54.750Z,7.80
2023-02-11T06:23:23.033Z,7.80
2023-02-11T06:25:52.882Z,7.80
2023-02-11T06:28:21.295Z,7.80
2023-02-11T06:30:49.323Z,7.80
2023-02-11T06:33:17.231Z,7.80
2023-02-11T06:35:45.119Z,7.80
2023-02-11T06:38:13.004Z,7.80
2023-02-11T06:40:40.913Z,7.80
2023-02-11T06:43:10.105Z,7.90
2023-02-11T06:45:38.005Z,7.90
2023-02-11T06:48:06.187Z,7.90
2023-02-11T06:50:34.066Z,7.90
2023-02-11T06:53:02.111Z,7.90
2023-02-11T06:55:29.986Z,7.90
2023-02-11T06:57:57.884Z,7.90
2023-02-11T07:00:29.003Z,7.90
2023-02-11T07:02:57.143Z,7.90
2023-02-11T07:05:25.160Z,7.90
2023-02-11T07:07:53.052Z,8.00
2023-02-11T07:10:20.947Z,8.00
2023-02-11T07:12:48.809Z,8.00
2023-02-11T07:15:16.759Z,8.00
2023-02-11T07:17:46.014Z,8.00
2023-02-11T07:20:15.063Z,8.10
2023-02-11T07:22:42.957Z,8.10
2023-02-11T07:25:10.929Z,8.10
2023-02-11T07:27:38.848Z,8.10
2023-02-11T07:30:07.584Z,8.20
2023-02-11T07:32:35.491Z,8.20
2023-02-11T07:35:05.660Z,8.20
2023-02-11T07:37:35.077Z,8.20
2023-02-11T07:40:03.170Z,8.20
2023-02-11T07:42:31.051Z,8.30
2023-02-11T07:44:58.973Z,8.30
2023-02-11T07:47:26.964Z,8.30
2023-02-11T07:49:56.670Z,8.40
2023-02-11T07:52:26.135Z,8.40
2023-02-11T07:54:54.130Z,8.40
2023-02-11T07:57:21.989Z,8.50
2023-02-11T07:59:49.880Z,8.50
2023-02-11T08:02:17.869Z,8.50
2023-02-11T08:04:47.122Z,8.50
2023-02-11T08:07:16.800Z,8.50
2023-02-11T08:09:46.490Z,8.50
2023-02-11T08:12:14.397Z,8.50
2023-02-11T08:14:42.273Z,8.50
2023-02-11T08:17:10.161Z,8.50
2023-02-11T08:19:38.074Z,8.50
2023-02-11T08:22:06.008Z,8.50
2023-02-11T08:24:33.893Z,8.50
2023-02-11T08:27:03.161Z,8.60
2023-02-11T08:29:31.232Z,8.60
2023-02-11T08:31:59.189Z,8.60
2023-02-11T08:34:27.106Z,8.60
2023-02-11T08:36:55.078Z,8.60
2023-02-11T08:39:23.927Z,8.60
2023-02-11T08:41:53.878Z,8.60
2023-02-11T08:44:23.801Z,8.60
2023-02-11T08:46:52.462Z,8.60
2023-02-11T08:49:21.056Z,8.60
2023-02-11T08:51:49.135Z,8.60
2023-02-11T08:54:17.336Z,8.50
2023-02-11T08:56:45.609Z,8.50
2023-02-11T08:59:17.661Z,8.50
2023-02-11T09:01:47.687Z,8.60
2023-02-11T09:04:15.833Z,8.60
2023-02-11T09:06:43.738Z,8.60
2023-02-11T09:09:13.928Z,8.60
2023-02-11T09:11:43.686Z,8.70
2023-02-11T09:14:17.717Z,8.70
2023-02-11T09:16:47.174Z,8.70
2023-02-11T09:19:15.204Z,8.70
2023-02-11T09:21:43.094Z,8.80
2023-02-11T09:24:11.310Z,8.80
2023-02-11T09:26:39.646Z,8.80
2023-02-11T09:29:07.681Z,8.80
2023-02-11T09:31:36.108Z,8.80
2023-02-11T09:34:07.128Z,8.80
2023-02-11T09:36:38.304Z,8.80
2023-02-11T09:39:08.093Z,8.80
2023-02-11T09:42:04.336Z,8.80
2023-02-11T09:44:34.955Z,8.80
2023-02-11T09:47:05.810Z,8.80
2023-02-11T09:49:40.999Z,8.90
2023-02-11T09:52:16.469Z,8.90
2023-02-11T09:54:55.404Z,8.90
2023-02-11T09:57:28.997Z,8.90
2023-02-11T09:59:58.140Z,8.90
2023-02-11T10:02:32.421Z,8.90
2023-02-11T10:05:35.427Z,8.90
2023-02-11T10:08:17.045Z,9.00
2023-02-11T10:10:51.993Z,9.00
2023-02-11T10:13:34.584Z,9.00
2023-02-11T10:16:14.767Z,9.00
2023-02-11T10:18:57.873Z,9.00
2023-02-11T10:21:34.110Z,9.00
2023-02-11T10:24:10.356Z,9.00
2023-02-11T10:26:40.584Z,9.00
2023-02-11T10:29:19.418Z,9.00
2023-02-11T10:31:48.348Z,9.00
2023-02-11T10:34:16.611Z,9.00
2023-02-11T10:36:46.694Z,9.00
2023-02-11T10:39:17.686Z,9.10
2023-02-11T10:41:47.424Z,9.10
2023-02-11T10:44:25.163Z,9.10
2023-02-11T10:46:54.700Z,9.10
2023-02-11T10:49:40.026Z,9.10
2023-02-11T10:52:20.371Z,9.10
2023-02-11T10:55:00.345Z,9.10
2023-02-11T10:57:31.999Z,9.20
2023-02-11T11:00:03.514Z,9.20
2023-02-11T11:02:35.267Z,9.20
2023-02-11T11:05:05.283Z,9.20
2023-02-11T11:07:35.355Z,9.20
2023-02-11T11:10:06.556Z,9.20
2023-02-11T11:12:42.090Z,9.30
2023-02-11T11:15:21.607Z,9.30
2023-02-11T11:17:50.253Z,9.30
2023-02-11T11:20:23.936Z,9.20
2023-02-11T11:23:08.448Z,9.20
2023-02-11T11:25:40.380Z,9.20
2023-02-11T11:28:19.835Z,9.20
2023-02-11T11:30:47.967Z,9.20
2023-02-11T11:33:21.972Z,9.20
2023-02-11T11:36:01.675Z,9.20
2023-02-11T11:38:33.069Z,9.20
2023-02-11T11:41:19.183Z,9.20
2023-02-11T11:43:59.206Z,9.20
2023-02-11T11:46:29.908Z,9.20
2023-02-11T11:49:04.116Z,9.20
2023-02-11T11:51:33.709Z,9.20
2023-02-11T11:54:07.119Z,9.20
2023-02-11T11:56:37.220Z,9.30
2023-02-11T11:59:13.417Z,9.30
2023-02-11T12:01:51.707Z,9.30
2023-02-11T12:05:00.998Z,9.30
2023-02-11T12:07:43.684Z,9.30
2023-02-11T12:10:30.682Z,9.30
2023-02-11T12:13:07.045Z,9.30
2023-02-11T12:15:42.133Z,9.30
2023-02-11T12:18:26.882Z,9.40
2023-02-11T12:21:11.248Z,9.40
2023-02-11T12:23:51.121Z,9.40
2023-02-11T12:26:23.032Z,9.50
2023-02-11T12:29:05.428Z,9.50
2023-02-11T12:31:47.193Z,9.50
2023-02-11T12:34:40.751Z,9.50
2023-02-11T12:37:19.895Z,9.50
2023-02-11T12:39:52.283Z,9.50
2023-02-11T12:43:05.454Z,9.60
2023-02-11T12:45:44.318Z,9.70
2023-02-11T12:48:25.576Z,9.70
2023-02-11T12:50:59.293Z,9.70
2023-02-11T12:53:45.614Z,9.70
2023-02-11T12:56:18.571Z,9.70
2023-02-11T12:58:51.497Z,9.70
2023-02-11T13:01:23.921Z,9.60
2023-02-11T13:03:56.880Z,9.60
2023-02-11T13:06:30.330Z,9.50
2023-02-11T13:09:02.162Z,9.60
2023-02-11T13:11:36.318Z,9.60
2023-02-11T13:14:10.399Z,9.60
2023-02-11T13:16:42.165Z,9.60
2023-02-11T13:19:21.133Z,9.60
2023-02-11T13:21:57.743Z,9.60
2023-02-11T13:24:32.252Z,9.70
2023-02-11T13:27:09.406Z,9.70
2023-02-11T13:29:58.415Z,9.60
2023-02-11T13:32:26.460Z,9.60
2023-02-11T13:34:59.541Z,9.60
2023-02-11T13:37:32.809Z,9.70
2023-02-11T13:40:02.303Z,9.70
2023-02-11T13:42:32.221Z,9.70
2023-02-11T13:45:01.966Z,9.70
2023-02-11T13:47:33.374Z,9.70
2023-02-11T13:50:03.725Z,9.70
2023-02-11T13:52:34.856Z,9.70
2023-02-11T13:55:10.281Z,9.70
2023-02-11T13:57:40.668Z,9.70
2023-02-11T14:00:50.618Z,9.70
2023-02-11T14:03:52.812Z,9.80
2023-02-11T14:06:48.895Z,9.70
2023-02-11T14:09:39.118Z,9.70
2023-02-11T14:12:32.944Z,9.70
2023-02-11T14:15:06.722Z,9.70
2023-02-11T14:17:35.839Z,9.70
2023-02-11T14:20:26.440Z,9.70
2023-02-11T14:22:54.925Z,9.70
2023-02-11T14:25:25.347Z,9.70
2023-02-11T14:27:57.589Z,9.70
2023-02-11T14:30:46.957Z,9.60
2023-02-11T14:33:59.860Z,9.60
2023-02-11T14:37:00.301Z,9.70
2023-02-11T14:39:41.361Z,9.70
2023-02-11T14:42:18.942Z,9.60
2023-02-11T14:44:49.185Z,9.60
2023-02-11T14:47:20.564Z,9.60
2023-02-11T14:49:50.616Z,9.60
2023-02-11T14:52:28.844Z,9.60
2023-02-11T14:55:07.478Z,9.60
2023-02-11T14:57:35.468Z,9.70
2023-02-11T15:00:06.984Z,9.70
2023-02-11T15:02:37.470Z,9.70
2023-02-11T15:05:19.959Z,9.70
2023-02-11T15:07:52.507Z,9.70
2023-02-11T15:10:27.594Z,9.70
2023-02-11T15:12:55.945Z,9.70
2023-02-11T15:15:23.869Z,9.70
2023-02-11T15:17:52.013Z,9.70
2023-02-11T15:20:25.465Z,9.60
2023-02-11T15:22:58.475Z,9.60
2023-02-11T15:25:27.920Z,9.60
2023-02-11T15:27:57.636Z,9.60
2023-02-11T15:30:28.680Z,9.60
2023-02-11T15:32:59.920Z,9.70
2023-02-11T15:35:30.185Z,9.70
2023-02-11T15:38:00.502Z,9.70
2023-02-11T15:40:32.353Z,9.70
2023-02-11T15:43:02.640Z,9.70
2023-02-11T15:45:34.370Z,9.70
2023-02-11T15:48:10.616Z,9.70
2023-02-11T15:50:40.878Z,9.70
2023-02-11T15:53:23.005Z,9.70
2023-02-11T15:55:53.768Z,9.70
2023-02-11T15:58:22.854Z,9.60
2023-02-11T16:00:59.612Z,9.60
2023-02-11T16:03:32.647Z,9.60
2023-02-11T16:06:22.448Z,9.60
2023-02-11T16:09:03.278Z,9.60
2023-02-11T16:11:33.235Z,9.60
2023-02-11T16:14:04.634Z,9.50
2023-02-11T16:16:36.347Z,9.50
2023-02-11T16:19:06.537Z,9.60
2023-02-11T16:21:38.935Z,9.60
2023-02-11T16:24:17.064Z,9.50
2023-02-11T16:26:50.049Z,9.50
2023-02-11T16:29:20.230Z,9.50
2023-02-11T16:31:50.397Z,9.60
2023-02-11T16:34:20.157Z,9.60
2023-02-11T16:36:48.450Z,9.60
2023-02-11T16:39:18.809Z,9.60
2023-02-11T16:41:46.805Z,9.60
2023-02-11T16:44:14.809Z,9.60
2023-02-11T16:46:42.850Z,9.60
2023-02-11T16:49:15.951Z,9.60
2023-02-11T16:51:44.296Z,9.60
2023-02-11T16:54:16.129Z,9.60
2023-02-11T16:56:45.799Z,9.60
2023-02-11T16:59:13.950Z,9.60
2023-02-11T17:01:43.093Z,9.60
2023-02-11T17:04:15.884Z,9.60
2023-02-11T17:06:43.811Z,9.60
2023-02-11T17:09:18.436Z,9.60
2023-02-11T17:11:47.697Z,9.60
2023-02-11T17:14:15.634Z,9.60
2023-02-11T17:16:45.181Z,9.60
2023-02-11T17:19:15.907Z,9.60
2023-02-11T17:21:44.038Z,9.60
2023-02-11T17:24:12.136Z,9.60
2023-02-11T17:26:40.314Z,9.70
2023-02-11T17:29:11.473Z,9.60
2023-02-11T17:31:40.399Z,9.70
2023-02-11T17:34:08.813Z,9.70
2023-02-11T17:36:36.821Z,9.70
2023-02-11T17:39:08.220Z,9.70
2023-02-11T17:41:37.404Z,9.70
2023-02-11T17:44:06.436Z,9.70
2023-02-11T17:46:36.830Z,9.70
2023-02-11T17:49:05.468Z,9.70
2023-02-11T17:51:35.191Z,9.70
2023-02-11T17:54:05.010Z,9.70
2023-02-11T17:56:33.872Z,9.70
2023-02-11T17:59:02.376Z,9.70
2023-02-11T18:01:31.946Z,9.80
2023-02-11T18:04:01.308Z,9.80
2023-02-11T18:06:29.649Z,9.80
2023-02-11T18:08:59.804Z,9.80
2023-02-11T18:11:28.280Z,9.80
2023-02-11T18:13:56.256Z,9.80
2023-02-11T18:16:28.609Z,9.80
2023-02-11T18:18:57.379Z,9.80
2023-02-11T18:21:27.005Z,9.80
2023-02-11T18:23:56.856Z,9.80
2023-02-11T18:26:27.952Z,9.80
2023-02-11T18:28:57.621Z,9.90
2023-02-11T18:31:26.373Z,9.90
2023-02-11T18:33:54.818Z,9.90
2023-02-11T18:36:24.017Z,9.90
2023-02-11T18:38:54.218Z,9.90
2023-02-11T18:41:22.325Z,9.90
2023-02-11T18:43:50.350Z,9.90
2023-02-11T18:46:18.718Z,9.90
2023-02-11T18:48:46.771Z,9.90
2023-02-11T18:51:18.276Z,9.90
2023-02-11T18:53:46.657Z,9.90
2023-02-11T18:56:17.787Z,9.90
2023-02-11T18:58:45.783Z,9.90
2023-02-11T19:01:15.578Z,9.90
2023-02-11T19:03:43.912Z,10.00
2023-02-11T19:06:16.896Z,10.00
2023-02-11T19:08:44.985Z,10.00
2023-02-11T19:11:16.122Z,10.00
2023-02-11T19:13:44.107Z,10.00
2023-02-11T19:16:14.780Z,9.90
2023-02-11T19:18:42.739Z,9.90
2023-02-11T19:21:12.392Z,9.90
2023-02-11T19:23:40.598Z,9.90
2023-02-11T19:26:08.524Z,9.90
2023-02-11T19:28:38.009Z,9.90
2023-02-11T19:31:10.030Z,9.90
2023-02-11T19:33:38.108Z,9.90
2023-02-11T19:36:07.624Z,10.00
2023-02-11T19:38:35.795Z,9.90
2023-02-11T19:41:03.891Z,9.90
2023-02-11T19:43:31.926Z,9.90
2023-02-11T19:46:02.478Z,9.90
2023-02-11T19:48:30.457Z,9.90
2023-02-11T19:50:58.760Z,9.90
2023-02-11T19:53:26.798Z,9.90
2023-02-11T19:55:54.718Z,9.90
2023-02-11T19:58:22.631Z,9.80
2023-02-11T20:00:50.519Z,9.80
2023-02-11T20:03:19.833Z,9.80
2023-02-11T20:05:47.969Z,9.80
2023-02-11T20:08:17.056Z,9.80
2023-02-11T20:10:45.062Z,9.80
2023-02-11T20:13:13.094Z,9.80
2023-02-11T20:15:41.089Z,9.80
2023-02-11T20:18:09.115Z,9.80
2023-02-11T20:20:39.250Z,9.80
2023-02-11T20:23:07.193Z,9.90
2023-02-11T20:25:35.122Z,9.80
2023-02-11T20:28:03.057Z,9.90
2023-02-11T20:30:30.967Z,9.80
2023-02-11T20:32:58.942Z,9.80
2023-02-11T20:35:26.892Z,9.80
2023-02-11T20:37:56.176Z,9.80
2023-02-11T20:40:24.051Z,9.80
2023-02-11T20:42:52.778Z,9.80
2023-02-11T20:45:20.725Z,9.80
2023-02-11T20:47:48.734Z,9.80
2023-02-11T20:50:16.653Z,9.80
2023-02-11T20:52:44.604Z,9.80
2023-02-11T20:55:13.997Z,9.80
2023-02-11T20:57:42.393Z,9.80
2023-02-11T21:00:13.092Z,9.80
2023-02-11T21:02:42.349Z,9.80
2023-02-11T21:05:11.479Z,9.80
2023-02-11T21:07:39.526Z,9.80
2023-02-11T21:10:08.796Z,9.80
2023-02-11T21:12:38.187Z,9.80
2023-02-11T21:15:07.522Z,9.80
2023-02-11T21:17:35.392Z,9.80
2023-02-11T21:20:03.353Z,9.80
2023-02-11T21:22:31.359Z,9.80
2023-02-11T21:25:01.030Z,9.80
2023-02-11T21:27:32.174Z,9.80
2023-02-11T21:30:02.249Z,9.80
2023-02-11T21:32:30.254Z,9.80
2023-02-11T21:35:00.550Z,9.80
2023-02-11T21:37:29.799Z,9.80
2023-02-11T21:39:57.804Z,9.80
2023-02-11T21:42:25.800Z,9.80
2023-02-11T21:44:53.854Z,9.90
2023-02-11T21:47:23.218Z,9.80
2023-02-11T21:49:51.134Z,9.80
2023-02-11T21:52:19.283Z,9.80
2023-02-11T21:54:50.054Z,9.80
2023-02-11T21:57:18.080Z,9.80
2023-02-11T21:59:46.055Z,9.80
2023-02-11T22:02:13.957Z,9.80
2023-02-11T22:04:43.322Z,9.80
2023-02-11T22:07:12.605Z,9.80
2023-02-11T22:09:41.169Z,9.80
2023-02-11T22:12:09.562Z,9.80
2023-02-11T22:14:37.540Z,9.70
2023-02-11T22:17:05.772Z,9.70
2023-02-11T22:19:34.197Z,9.70
2023-02-11T22:22:03.474Z,9.80
2023-02-11T22:24:31.480Z,9.80
2023-02-11T22:26:59.364Z,9.70
2023-02-11T22:29:27.389Z,9.70
2023-02-11T22:31:55.319Z,9.70
2023-02-11T22:34:23.292Z,9.70
2023-02-11T22:36:51.198Z,9.80
2023-02-11T22:39:20.515Z,9.80
2023-02-11T22:41:49.030Z,9.80
2023-02-11T22:44:17.805Z,9.80
2023-02-11T22:46:45.730Z,9.80
2023-02-11T22:49:16.301Z,9.70
2023-02-11T22:51:44.630Z,9.80
2023-02-11T22:54:15.275Z,9.80
2023-02-11T22:56:45.628Z,9.80
2023-02-11T22:59:15.556Z,9.80
2023-02-11T23:01:44.143Z,9.80
2023-02-11T23:04:14.405Z,9.80
2023-02-11T23:06:42.293Z,9.80
2023-02-11T23:09:13.173Z,9.70
2023-02-11T23:11:41.460Z,9.70
2023-02-11T23:14:12.132Z,9.70
2023-02-11T23:16:40.389Z,9.70
2023-02-11T23:19:09.939Z,9.70
2023-02-11T23:21:39.591Z,9.70
2023-02-11T23:24:09.711Z,9.70
2023-02-11T23:26:39.633Z,9.70
2023-02-11T23:29:07.544Z,9.70
2023-02-11T23:31:39.663Z,9.80
2023-02-11T23:34:08.756Z,9.70
2023-02-11T23:36:37.263Z,9.70
2023-02-11T23:39:05.583Z,9.70
2023-02-11T23:41:33.528Z,9.70
2023-02-11T23:44:01.413Z,9.70
2023-02-11T23:46:29.649Z,9.70
2023-02-11T23:48:58.948Z,9.80
2023-02-11T23:51:26.871Z,9.80
2023-02-11T23:53:56.117Z,9.70
2023-02-11T23:56:26.214Z,9.80
2023-02-11T23:58:55.687Z,9.80
